createdAt,value
2018-10-05T00:00:26.506Z,0.00
2018-10-05T00:02:19.427Z,0.00
2018-10-05T00:03:19.198Z,0.00
2018-10-05T00:05:12.093Z,0.00
2018-10-05T00:06:12.012Z,0.00
2018-10-05T00:08:04.923Z,0.00
2018-10-05T00:09:04.927Z,0.00
2018-10-05T00:10:57.805Z,0.00
2018-10-05T00:11:57.855Z,0.00
2018-10-05T00:13:50.882Z,0.00
2018-10-05T00:14:50.516Z,0.00
2018-10-05T00:16:43.663Z,0.00
2018-10-05T00:17:43.483Z,0.00
2018-10-05T00:19:36.393Z,0.00
2018-10-05T00:20:43.629Z,0.00
2018-10-05T00:22:29.219Z,0.00
2018-10-05T00:23:31.950Z,0.00
2018-10-05T00:25:22.757Z,0.00
2018-10-05T00:26:22.517Z,0.00
2018-10-05T00:28:16.072Z,0.00
2018-10-05T00:29:16.011Z,0.00
2018-10-05T00:31:08.974Z,0.00
2018-10-05T00:32:09.223Z,0.00
2018-10-05T00:34:01.992Z,0.00
2018-10-05T00:35:08.890Z,0.00
2018-10-05T00:36:54.534Z,0.00
2018-10-05T00:38:01.854Z,0.00
2018-10-05T00:39:47.525Z,0.00
2018-10-05T00:40:49.139Z,0.00
2018-10-05T00:42:40.257Z,0.00
2018-10-05T00:43:40.464Z,0.00
2018-10-05T00:45:34.208Z,0.00
2018-10-05T00:46:35.328Z,0.00
2018-10-05T00:48:27.220Z,0.00
2018-10-05T00:49:27.465Z,0.00
2018-10-05T00:51:21.292Z,0.00
2018-10-05T00:52:20.805Z,0.00
2018-10-05T00:53:21.680Z,0.00
2018-10-05T00:54:20.735Z,0.00
2018-10-05T00:55:27.827Z,0.00
2018-10-05T00:57:13.585Z,0.00
2018-10-05T00:58:15.041Z,0.00
2018-10-05T01:00:06.391Z,0.00
2018-10-05T01:01:07.509Z,0.00
2018-10-05T01:02:59.239Z,0.00
2018-10-05T01:04:00.739Z,0.00
2018-10-05T01:05:52.665Z,0.00
2018-10-05T01:06:52.133Z,0.00
2018-10-05T01:08:44.922Z,0.00
2018-10-05T01:09:45.993Z,0.00
2018-10-05T01:11:37.989Z,0.00
2018-10-05T01:12:37.800Z,0.00
2018-10-05T01:14:30.638Z,0.00
2018-10-05T01:15:30.736Z,0.00
2018-10-05T01:17:23.920Z,0.00
2018-10-05T01:18:24.592Z,0.00
2018-10-05T01:19:24.018Z,0.00
2018-10-05T01:20:24.025Z,0.00
2018-10-05T01:21:24.095Z,0.00
2018-10-05T01:22:31.437Z,0.00
2018-10-05T01:24:17.842Z,0.00
2018-10-05T01:25:19.480Z,0.00
2018-10-05T01:27:10.670Z,0.00
2018-10-05T01:28:11.796Z,0.00
2018-10-05T01:30:03.706Z,0.00
2018-10-05T01:31:04.123Z,0.00
2018-10-05T01:32:56.425Z,0.00
2018-10-05T01:33:57.094Z,0.00
2018-10-05T01:35:50.224Z,0.00
2018-10-05T01:36:50.206Z,0.00
2018-10-05T01:38:43.096Z,0.00
2018-10-05T01:39:43.125Z,0.00
2018-10-05T01:41:35.951Z,0.00
2018-10-05T01:42:36.474Z,0.00
2018-10-05T01:44:28.753Z,0.00
2018-10-05T01:45:29.417Z,0.00
2018-10-05T01:47:22.093Z,0.00
2018-10-05T01:48:22.329Z,0.00
2018-10-05T01:50:16.199Z,0.00
2018-10-05T01:51:15.698Z,0.00
2018-10-05T01:53:07.959Z,0.00
2018-10-05T01:54:07.934Z,0.00
2018-10-05T01:56:00.831Z,0.00
2018-10-05T01:57:00.923Z,0.00
2018-10-05T01:58:53.695Z,0.00
2018-10-05T01:59:53.700Z,0.00
2018-10-05T02:01:46.645Z,0.00
2018-10-05T02:02:47.656Z,0.00
2018-10-05T02:04:39.798Z,0.00
2018-10-05T02:05:40.002Z,0.00
2018-10-05T02:07:33.332Z,0.00
2018-10-05T02:08:33.857Z,0.00
2018-10-05T02:10:26.816Z,0.00
2018-10-05T02:11:26.806Z,0.00
2018-10-05T02:13:20.845Z,0.00
2018-10-05T02:14:20.285Z,0.00
2018-10-05T02:16:13.167Z,0.00
2018-10-05T02:17:13.022Z,0.00
2018-10-05T02:19:06.560Z,0.00
2018-10-05T02:20:05.982Z,0.00
2018-10-05T02:21:58.860Z,0.00
2018-10-05T02:22:59.414Z,0.00
2018-10-05T02:24:51.738Z,0.00
2018-10-05T02:25:52.706Z,0.00
2018-10-05T02:27:44.775Z,0.00
2018-10-05T02:28:44.613Z,0.00
2018-10-05T02:30:37.389Z,0.00
2018-10-05T02:31:38.973Z,0.00
2018-10-05T02:33:30.853Z,0.00
2018-10-05T02:34:30.810Z,0.00
2018-10-05T02:36:23.514Z,0.00
2018-10-05T02:37:24.682Z,0.00
2018-10-05T02:39:16.465Z,0.00
2018-10-05T02:40:18.168Z,0.00
2018-10-05T02:42:09.914Z,0.00
2018-10-05T02:43:09.386Z,0.00
2018-10-05T02:45:02.202Z,0.00
2018-10-05T02:46:03.240Z,0.00
2018-10-05T02:47:56.044Z,0.00
2018-10-05T02:48:56.064Z,0.00
2018-10-05T02:50:47.892Z,0.00
2018-10-05T02:51:47.981Z,0.00
2018-10-05T02:53:40.774Z,0.00
2018-10-05T02:54:42.271Z,0.00
2018-10-05T02:56:33.757Z,0.00
2018-10-05T02:57:33.704Z,0.00
2018-10-05T02:59:27.510Z,0.00
2018-10-05T03:00:27.982Z,0.00
2018-10-05T03:02:20.949Z,0.00
2018-10-05T03:03:20.904Z,0.00
2018-10-05T03:05:13.771Z,0.00
2018-10-05T03:06:14.272Z,0.00
2018-10-05T03:08:07.012Z,0.00
2018-10-05T03:09:07.726Z,0.00
2018-10-05T03:11:00.039Z,0.00
2018-10-05T03:12:00.541Z,0.00
2018-10-05T03:13:52.352Z,0.00
2018-10-05T03:14:53.373Z,0.00
2018-10-05T03:16:45.187Z,0.00
2018-10-05T03:17:45.766Z,0.00
2018-10-05T03:19:38.023Z,0.00
2018-10-05T03:20:39.085Z,0.00
2018-10-05T03:22:31.301Z,0.00
2018-10-05T03:23:31.974Z,0.00
2018-10-05T03:25:24.802Z,0.00
2018-10-05T03:26:24.760Z,0.00
2018-10-05T03:28:18.351Z,0.00
2018-10-05T03:29:17.816Z,0.00
2018-10-05T03:31:11.737Z,0.00
2018-10-05T03:32:12.841Z,0.00
2018-10-05T03:34:04.545Z,0.00
2018-10-05T03:35:04.634Z,0.00
2018-10-05T03:36:57.368Z,0.00
2018-10-05T03:37:58.064Z,0.00
2018-10-05T03:39:50.259Z,0.00
2018-10-05T03:40:50.237Z,0.00
2018-10-05T03:42:43.608Z,0.00
2018-10-05T03:43:43.202Z,0.00
2018-10-05T03:45:35.862Z,0.00
2018-10-05T03:46:37.026Z,0.00
2018-10-05T03:48:29.298Z,0.00
2018-10-05T03:49:29.407Z,0.00
2018-10-05T03:51:22.838Z,0.00
2018-10-05T03:52:22.805Z,0.00
2018-10-05T03:54:15.738Z,0.00
2018-10-05T03:55:15.691Z,0.00
2018-10-05T03:57:08.592Z,0.00
2018-10-05T03:58:08.600Z,0.00
2018-10-05T04:00:01.294Z,0.00
2018-10-05T04:01:01.355Z,0.00
2018-10-05T04:02:54.087Z,0.00
2018-10-05T04:03:54.755Z,0.00
2018-10-05T04:05:46.936Z,0.00
2018-10-05T04:06:48.648Z,0.00
2018-10-05T04:08:39.988Z,0.00
2018-10-05T04:09:39.989Z,0.00
2018-10-05T04:11:33.316Z,0.00
2018-10-05T04:12:33.918Z,0.00
2018-10-05T04:14:26.103Z,0.00
2018-10-05T04:15:26.262Z,0.00
2018-10-05T04:17:19.581Z,0.00
2018-10-05T04:18:20.011Z,0.00
2018-10-05T04:20:12.436Z,0.00
2018-10-05T04:21:12.341Z,0.00
2018-10-05T04:23:05.240Z,0.00
2018-10-05T04:24:05.266Z,0.00
2018-10-05T04:25:58.103Z,0.00
2018-10-05T04:26:58.126Z,0.00
2018-10-05T04:28:50.898Z,0.00
2018-10-05T04:29:51.283Z,0.00
2018-10-05T04:32:24.520Z,0.00
2018-10-05T04:33:24.461Z,0.00
2018-10-05T04:35:17.482Z,0.00
2018-10-05T04:36:18.964Z,0.00
2018-10-05T04:38:10.193Z,0.00
2018-10-05T04:39:11.375Z,0.00
2018-10-05T04:41:03.137Z,0.00
2018-10-05T04:42:03.137Z,0.00
2018-10-05T04:43:55.853Z,0.00
2018-10-05T04:44:55.699Z,0.00
2018-10-05T04:46:48.735Z,0.00
2018-10-05T04:47:48.751Z,0.00
2018-10-05T04:49:41.764Z,0.00
2018-10-05T04:50:41.776Z,0.00
2018-10-05T04:52:34.440Z,0.00
2018-10-05T04:53:34.487Z,0.00
2018-10-05T04:55:28.527Z,4.00
2018-10-05T04:56:28.470Z,0.00
2018-10-05T04:58:21.715Z,4.00
2018-10-05T04:59:21.681Z,4.00
2018-10-05T05:01:14.664Z,4.00
2018-10-05T05:02:14.549Z,8.00
2018-10-05T05:04:07.503Z,4.00
2018-10-05T05:05:07.521Z,8.00
2018-10-05T05:07:00.316Z,12.00
2018-10-05T05:08:00.136Z,12.00
2018-10-05T05:09:53.046Z,16.00
2018-10-05T05:10:53.102Z,20.00
2018-10-05T05:12:46.133Z,28.00
2018-10-05T05:13:45.891Z,28.00
2018-10-05T05:15:38.732Z,36.00
2018-10-05T05:16:38.789Z,44.00
2018-10-05T05:18:31.805Z,52.00
2018-10-05T05:19:31.625Z,56.00
2018-10-05T05:21:25.432Z,68.00
2018-10-05T05:22:25.582Z,76.00
2018-10-05T05:24:18.447Z,88.00
2018-10-05T05:25:18.271Z,96.00
2018-10-05T05:27:11.337Z,116.00
2018-10-05T05:28:11.255Z,128.00
2018-10-05T05:30:04.201Z,148.00
2018-10-05T05:31:04.210Z,156.00
2018-10-05T05:32:57.033Z,180.00
2018-10-05T05:33:57.093Z,188.00
2018-10-05T05:35:49.803Z,216.00
2018-10-05T05:36:49.751Z,228.00
2018-10-05T05:38:42.679Z,256.00
2018-10-05T05:39:42.666Z,268.00
2018-10-05T05:41:36.008Z,300.00
2018-10-05T05:42:35.951Z,312.00
2018-10-05T05:44:29.324Z,340.00
2018-10-05T05:45:29.384Z,356.00
2018-10-05T05:47:22.238Z,384.00
2018-10-05T05:48:22.332Z,400.00
2018-10-05T05:50:15.005Z,428.00
2018-10-05T05:51:15.016Z,444.00
2018-10-05T05:53:07.997Z,472.00
2018-10-05T05:54:07.932Z,492.00
2018-10-05T05:56:00.877Z,520.00
2018-10-05T05:57:00.714Z,536.00
2018-10-05T05:58:00.693Z,544.00
2018-10-05T05:59:00.642Z,568.00
2018-10-05T06:00:00.617Z,584.00
2018-10-05T06:01:00.670Z,600.00
2018-10-05T06:02:00.624Z,616.00
2018-10-05T06:03:00.597Z,628.00
2018-10-05T06:04:00.592Z,648.00
2018-10-05T06:05:00.591Z,660.00
2018-10-05T06:06:00.582Z,676.00
2018-10-05T06:07:00.581Z,692.00
2018-10-05T06:08:00.637Z,708.00
2018-10-05T06:09:00.566Z,724.00
2018-10-05T06:10:00.565Z,736.00
2018-10-05T06:11:00.559Z,752.00
2018-10-05T06:12:00.576Z,772.00
2018-10-05T06:13:00.553Z,788.00
2018-10-05T06:14:00.551Z,804.00
2018-10-05T06:15:00.543Z,824.00
2018-10-05T06:16:00.561Z,836.00
2018-10-05T06:17:00.563Z,852.00
2018-10-05T06:18:00.563Z,868.00
2018-10-05T06:19:00.563Z,884.00
2018-10-05T06:20:00.594Z,904.00
2018-10-05T06:21:00.555Z,936.00
2018-10-05T06:22:00.713Z,1168.00
2018-10-05T06:23:00.557Z,2480.00
2018-10-05T06:24:00.595Z,3344.00
2018-10-05T06:25:00.672Z,3456.00
2018-10-05T06:26:07.926Z,3564.00
2018-10-05T06:27:53.892Z,3716.00
2018-10-05T06:28:53.866Z,3788.00
2018-10-05T06:29:53.828Z,3896.00
2018-10-05T06:30:54.083Z,4036.00
2018-10-05T06:31:53.381Z,4128.00
2018-10-05T06:32:53.415Z,4244.00
2018-10-05T06:33:53.346Z,4360.00
2018-10-05T06:34:53.346Z,4444.00
2018-10-05T06:35:53.349Z,4568.00
2018-10-05T06:36:53.354Z,4664.00
2018-10-05T06:37:53.381Z,4716.00
2018-10-05T06:38:53.415Z,4808.00
2018-10-05T06:39:53.373Z,4900.00
2018-10-05T06:40:54.940Z,4980.00
2018-10-05T06:41:53.410Z,5024.00
2018-10-05T06:42:54.916Z,5104.00
2018-10-05T06:43:53.331Z,5200.00
2018-10-05T06:44:53.333Z,5300.00
2018-10-05T06:45:53.421Z,5384.00
2018-10-05T06:46:53.406Z,5488.00
2018-10-05T06:47:53.344Z,5612.00
2018-10-05T06:48:53.423Z,5688.00
2018-10-05T06:49:53.392Z,5732.00
2018-10-05T06:50:53.372Z,5784.00
2018-10-05T06:51:53.362Z,5908.00
2018-10-05T06:52:54.993Z,6024.00
2018-10-05T06:53:53.409Z,6136.00
2018-10-05T06:54:53.482Z,6240.00
2018-10-05T06:55:53.545Z,6340.00
2018-10-05T06:56:53.387Z,6448.00
2018-10-05T06:57:54.977Z,6548.00
2018-10-05T06:58:53.366Z,6656.00
2018-10-05T06:59:53.417Z,6856.00
2018-10-05T07:00:53.438Z,6976.00
2018-10-05T07:01:53.388Z,7088.00
2018-10-05T07:02:53.369Z,7252.00
2018-10-05T07:03:53.404Z,7520.00
2018-10-05T07:04:53.455Z,7928.00
2018-10-05T07:05:53.456Z,8612.00
2018-10-05T07:06:54.928Z,9560.00
2018-10-05T07:07:53.445Z,12172.00
2018-10-05T07:08:53.397Z,15840.00
2018-10-05T07:09:53.403Z,16288.00
2018-10-05T07:10:53.404Z,14048.00
2018-10-05T07:11:53.429Z,12756.00
2018-10-05T07:12:53.417Z,12860.00
2018-10-05T07:13:53.444Z,13600.00
2018-10-05T07:14:53.497Z,14144.00
2018-10-05T07:15:53.625Z,14144.00
2018-10-05T07:16:53.623Z,14848.00
2018-10-05T07:17:53.520Z,16160.00
2018-10-05T07:18:55.597Z,18816.00
2018-10-05T07:19:53.457Z,21344.00
2018-10-05T07:20:53.481Z,22848.00
2018-10-05T07:21:53.541Z,25600.00
2018-10-05T07:22:53.496Z,27200.00
2018-10-05T07:23:53.499Z,26720.00
2018-10-05T07:24:53.502Z,26848.00
2018-10-05T07:25:53.500Z,27040.00
2018-10-05T07:26:53.492Z,26592.00
2018-10-05T07:27:53.498Z,26272.00
2018-10-05T07:28:54.462Z,24640.00
2018-10-05T07:29:53.519Z,20896.00
2018-10-05T07:30:53.518Z,20864.00
2018-10-05T07:31:53.881Z,20544.00
2018-10-05T07:32:53.605Z,18752.00
2018-10-05T07:33:53.905Z,16192.00
2018-10-05T07:34:53.580Z,11288.00
2018-10-05T07:35:53.587Z,7504.00
2018-10-05T07:36:55.676Z,11760.00
2018-10-05T07:37:53.589Z,12864.00
2018-10-05T07:38:53.614Z,12768.00
2018-10-05T07:39:53.646Z,15328.00
2018-10-05T07:40:53.623Z,16288.00
2018-10-05T07:41:56.458Z,16096.00
2018-10-05T07:42:55.487Z,13024.00
2018-10-05T07:43:53.661Z,7344.00
2018-10-05T07:44:53.717Z,4136.00
2018-10-05T07:45:55.551Z,3800.00
2018-10-05T07:46:53.635Z,4216.00
2018-10-05T07:47:53.641Z,3036.00
2018-10-05T07:48:53.739Z,3572.00
2018-10-05T07:49:53.793Z,8032.00
2018-10-05T07:50:53.673Z,11892.00
2018-10-05T07:51:53.773Z,9904.00
2018-10-05T07:52:53.695Z,7388.00
2018-10-05T07:53:53.772Z,4204.00
2018-10-05T07:54:56.575Z,2784.00
2018-10-05T07:55:53.882Z,3328.00
2018-10-05T07:56:55.565Z,6708.00
2018-10-05T07:59:16.494Z,18624.00
2018-10-05T08:00:17.392Z,17856.00
2018-10-05T08:02:15.514Z,8740.00
2018-10-05T08:03:15.151Z,4700.00
2018-10-05T08:05:07.945Z,4408.00
2018-10-05T08:06:07.909Z,6048.00
2018-10-05T08:08:00.424Z,21568.00
2018-10-05T08:09:00.423Z,24096.00
2018-10-05T08:10:53.337Z,24672.00
2018-10-05T08:11:53.334Z,28800.00
2018-10-05T08:12:53.514Z,33760.00
2018-10-05T08:13:53.416Z,31584.00
2018-10-05T08:14:53.466Z,27040.00
2018-10-05T08:15:53.349Z,20832.00
2018-10-05T08:16:53.370Z,15200.00
2018-10-05T08:17:53.368Z,10332.00
2018-10-05T08:18:53.377Z,10912.00
2018-10-05T08:19:53.384Z,12124.00
2018-10-05T08:20:53.405Z,14464.00
2018-10-05T08:21:53.402Z,17792.00
2018-10-05T08:22:53.409Z,23840.00
2018-10-05T08:23:53.418Z,23264.00
2018-10-05T08:24:53.426Z,20224.00
2018-10-05T08:25:53.437Z,14752.00
2018-10-05T08:26:53.462Z,18496.00
2018-10-05T08:27:53.557Z,17344.00
2018-10-05T08:28:53.459Z,18976.00
2018-10-05T08:29:53.468Z,19936.00
2018-10-05T08:30:53.476Z,20448.00
2018-10-05T08:31:53.487Z,20736.00
2018-10-05T08:32:53.495Z,20768.00
2018-10-05T08:33:53.593Z,20832.00
2018-10-05T08:34:53.524Z,20896.00
2018-10-05T08:35:53.523Z,21216.00
2018-10-05T08:36:53.531Z,21248.00
2018-10-05T08:37:53.541Z,21280.00
2018-10-05T08:38:53.553Z,21408.00
2018-10-05T08:39:53.668Z,21440.00
2018-10-05T08:40:53.576Z,21536.00
2018-10-05T08:41:53.590Z,21472.00
2018-10-05T08:42:53.594Z,21536.00
2018-10-05T08:43:53.605Z,21600.00
2018-10-05T08:44:53.619Z,21792.00
2018-10-05T08:45:53.670Z,21888.00
2018-10-05T08:46:53.639Z,21824.00
2018-10-05T08:47:53.650Z,21632.00
2018-10-05T08:48:53.663Z,21536.00
2018-10-05T08:49:53.673Z,21504.00
2018-10-05T08:50:53.702Z,21472.00
2018-10-05T08:51:53.768Z,21376.00
2018-10-05T08:52:53.712Z,21216.00
2018-10-05T08:53:53.727Z,20864.00
2018-10-05T08:54:53.733Z,20736.00
2018-10-05T08:55:53.748Z,20608.00
2018-10-05T08:56:53.758Z,20352.00
2018-10-05T08:57:53.771Z,20160.00
2018-10-05T08:58:53.783Z,19936.00
2018-10-05T08:59:53.799Z,19776.00
2018-10-05T09:00:53.812Z,19808.00
2018-10-05T09:01:53.822Z,20064.00
2018-10-05T09:02:53.836Z,25344.00
2018-10-05T09:03:53.847Z,40960.00
2018-10-05T09:04:53.871Z,52672.00
2018-10-05T09:05:53.942Z,51648.00
2018-10-05T09:06:53.887Z,49440.00
2018-10-05T09:07:53.904Z,48608.00
2018-10-05T09:08:53.914Z,47808.00
2018-10-05T09:09:53.928Z,49376.00
2018-10-05T09:10:53.942Z,51904.00
2018-10-05T09:11:53.957Z,52864.00
2018-10-05T09:12:53.969Z,50336.00
2018-10-05T09:13:53.983Z,45824.00
2018-10-05T09:14:53.996Z,46720.00
2018-10-05T09:15:54.008Z,50848.00
2018-10-05T09:16:54.024Z,52224.00
2018-10-05T09:17:54.181Z,52544.00
2018-10-05T09:18:54.062Z,52384.00
2018-10-05T09:19:54.064Z,51616.00
2018-10-05T09:20:54.079Z,50944.00
2018-10-05T09:21:54.091Z,51968.00
2018-10-05T09:22:54.107Z,51808.00
2018-10-05T09:23:54.120Z,52256.00
2018-10-05T09:24:54.135Z,52896.00
2018-10-05T09:25:54.145Z,54176.00
2018-10-05T09:26:54.163Z,53504.00
2018-10-05T09:27:54.177Z,53024.00
2018-10-05T09:28:54.191Z,54944.00
2018-10-05T09:29:54.208Z,55424.00
2018-10-05T09:30:54.220Z,53312.00
2018-10-05T09:31:54.234Z,53440.00
2018-10-05T09:32:54.250Z,52224.00
2018-10-05T09:33:54.264Z,54208.00
2018-10-05T09:34:54.279Z,53856.00
2018-10-05T09:35:54.296Z,53120.00
2018-10-05T09:36:54.309Z,54016.00
2018-10-05T09:37:54.404Z,56064.00
2018-10-05T09:38:54.337Z,55424.00
2018-10-05T09:39:54.353Z,55392.00
2018-10-05T09:40:54.370Z,55296.00
2018-10-05T09:41:54.383Z,55648.00
2018-10-05T09:42:54.398Z,56832.00
2018-10-05T09:43:54.414Z,56576.00
2018-10-05T09:44:54.495Z,54432.00
2018-10-05T09:45:54.444Z,57184.00
2018-10-05T09:46:54.459Z,56352.00
2018-10-05T09:47:54.475Z,54592.00
2018-10-05T09:48:54.487Z,55424.00
2018-10-05T09:49:54.508Z,54304.00
2018-10-05T09:50:54.525Z,57376.00
2018-10-05T09:51:54.595Z,55232.00
2018-10-05T09:52:54.553Z,57312.00
2018-10-05T09:53:54.569Z,58528.00
2018-10-05T09:54:54.585Z,59808.00
2018-10-05T09:55:54.600Z,59200.00
2018-10-05T09:56:54.616Z,57920.00
2018-10-05T09:57:54.633Z,60928.00
2018-10-05T09:58:54.648Z,58656.00
2018-10-05T09:59:54.757Z,58688.00
2018-10-05T10:00:54.678Z,59072.00
2018-10-05T10:01:54.692Z,58656.00
2018-10-05T10:02:54.737Z,60416.00
2018-10-05T10:03:54.720Z,59840.00
2018-10-05T10:04:54.735Z,37376.00
2018-10-05T10:05:54.746Z,10392.00
2018-10-05T10:06:54.759Z,6040.00
2018-10-05T10:07:54.856Z,4936.00
2018-10-05T10:08:54.789Z,4172.00
2018-10-05T10:09:54.804Z,3736.00
2018-10-05T10:10:54.804Z,3536.00
2018-10-05T10:11:54.816Z,3464.00
2018-10-05T10:12:54.833Z,3456.00
2018-10-05T10:13:54.883Z,3444.00
2018-10-05T10:14:54.848Z,3440.00
2018-10-05T10:15:54.869Z,3416.00
2018-10-05T10:16:54.867Z,3432.00
2018-10-05T10:17:54.877Z,3396.00
2018-10-05T10:18:54.886Z,3392.00
2018-10-05T10:19:54.909Z,3368.00
2018-10-05T10:20:54.901Z,3360.00
2018-10-05T10:21:54.912Z,3344.00
2018-10-05T10:22:54.942Z,3336.00
2018-10-05T10:23:54.928Z,3300.00
2018-10-05T10:24:54.935Z,3280.00
2018-10-05T10:25:54.940Z,3256.00
2018-10-05T10:26:54.948Z,3240.00
2018-10-05T10:27:55.000Z,3196.00
2018-10-05T10:28:55.027Z,3204.00
2018-10-05T10:29:54.968Z,3192.00
2018-10-05T10:30:54.979Z,3168.00
2018-10-05T10:31:54.987Z,3136.00
2018-10-05T10:32:54.995Z,3140.00
2018-10-05T10:33:54.999Z,3132.00
2018-10-05T10:34:55.006Z,3100.00
2018-10-05T10:35:55.012Z,3092.00
2018-10-05T10:36:55.029Z,3080.00
2018-10-05T10:37:55.024Z,3072.00
2018-10-05T10:38:55.034Z,3072.00
2018-10-05T10:39:55.054Z,3064.00
2018-10-05T10:40:55.046Z,3056.00
2018-10-05T10:41:55.053Z,3056.00
2018-10-05T10:42:55.071Z,3036.00
2018-10-05T10:43:55.066Z,3008.00
2018-10-05T10:44:55.074Z,3000.00
2018-10-05T10:45:55.078Z,3020.00
2018-10-05T10:46:55.083Z,3004.00
2018-10-05T10:47:55.090Z,3000.00
2018-10-05T10:48:55.121Z,2988.00
2018-10-05T10:49:55.142Z,2980.00
2018-10-05T10:50:55.116Z,2968.00
2018-10-05T10:51:55.121Z,2956.00
2018-10-05T10:52:55.166Z,2944.00
2018-10-05T10:53:55.130Z,2916.00
2018-10-05T10:54:55.189Z,2868.00
2018-10-05T10:55:55.147Z,2872.00
2018-10-05T10:56:55.148Z,2860.00
2018-10-05T10:57:55.191Z,2836.00
2018-10-05T10:58:55.159Z,2848.00
2018-10-05T10:59:55.173Z,2828.00
2018-10-05T11:00:55.173Z,2824.00
2018-10-05T11:01:55.178Z,2808.00
2018-10-05T11:02:55.359Z,2788.00
2018-10-05T11:03:55.213Z,2788.00
2018-10-05T11:04:55.242Z,2768.00
2018-10-05T11:05:55.207Z,2752.00
2018-10-05T11:06:55.232Z,2744.00
2018-10-05T11:07:55.212Z,2740.00
2018-10-05T11:08:55.221Z,2724.00
2018-10-05T11:09:55.230Z,2712.00
2018-10-05T11:10:55.288Z,2688.00
2018-10-05T11:11:55.247Z,2692.00
2018-10-05T11:12:55.243Z,2688.00
2018-10-05T11:13:55.252Z,2664.00
2018-10-05T11:14:55.533Z,2620.00
2018-10-05T11:15:55.462Z,2632.00
2018-10-05T11:16:55.310Z,2620.00
2018-10-05T11:17:55.278Z,2608.00
2018-10-05T11:18:55.280Z,2560.00
2018-10-05T11:19:55.288Z,2580.00
2018-10-05T11:20:55.293Z,2584.00
2018-10-05T11:21:55.295Z,2576.00
2018-10-05T11:22:55.303Z,2568.00
2018-10-05T11:23:55.479Z,2556.00
2018-10-05T11:24:55.341Z,2540.00
2018-10-05T11:25:55.324Z,2520.00
2018-10-05T11:26:55.327Z,2504.00
2018-10-05T11:27:55.336Z,2484.00
2018-10-05T11:28:55.340Z,2460.00
2018-10-05T11:29:55.346Z,2440.00
2018-10-05T11:30:55.354Z,2436.00
2018-10-05T11:31:55.369Z,2416.00
2018-10-05T11:32:55.368Z,2416.00
2018-10-05T11:33:55.388Z,2404.00
2018-10-05T11:34:55.966Z,2396.00
2018-10-05T11:35:55.686Z,2392.00
2018-10-05T11:36:55.385Z,2376.00
2018-10-05T11:37:55.393Z,2364.00
2018-10-05T11:38:55.403Z,2352.00
2018-10-05T11:39:55.403Z,2332.00
2018-10-05T11:40:55.502Z,2312.00
2018-10-05T11:41:55.421Z,2284.00
2018-10-05T11:42:55.422Z,2272.00
2018-10-05T11:43:55.430Z,2268.00
2018-10-05T11:44:55.439Z,2272.00
2018-10-05T11:45:55.439Z,2256.00
2018-10-05T11:46:55.448Z,2256.00
2018-10-05T11:47:55.452Z,2240.00
2018-10-05T11:48:55.495Z,2232.00
2018-10-05T11:49:55.483Z,2224.00
2018-10-05T11:50:56.485Z,2216.00
2018-10-05T11:51:55.480Z,2220.00
2018-10-05T11:52:55.482Z,2204.00
2018-10-05T11:53:55.484Z,2200.00
2018-10-05T11:54:55.489Z,2196.00
2018-10-05T11:56:02.690Z,2180.00
2018-10-05T11:57:48.439Z,2168.00
2018-10-05T11:58:48.640Z,2148.00
2018-10-05T12:00:41.522Z,2120.00
2018-10-05T12:01:41.491Z,2084.00
2018-10-05T12:03:34.929Z,2096.00
2018-10-05T12:04:34.900Z,2096.00
2018-10-05T12:06:27.833Z,2080.00
2018-10-05T12:07:27.790Z,2076.00
2018-10-05T12:09:21.757Z,2068.00
2018-10-05T12:10:21.711Z,2060.00
2018-10-05T12:12:15.511Z,2044.00
2018-10-05T12:13:15.451Z,2008.00
2018-10-05T12:15:08.643Z,2036.00
2018-10-05T12:16:08.854Z,2032.00
2018-10-05T12:18:01.295Z,2020.00
2018-10-05T12:19:01.245Z,2008.00
2018-10-05T12:20:54.190Z,1980.00
2018-10-05T12:21:54.134Z,1972.00
2018-10-05T12:23:47.061Z,1952.00
2018-10-05T12:24:47.038Z,1948.00
2018-10-05T12:26:40.556Z,1928.00
2018-10-05T12:27:40.499Z,1904.00
2018-10-05T12:28:40.469Z,1916.00
2018-10-05T12:29:40.491Z,1924.00
2018-10-05T12:30:40.475Z,1912.00
2018-10-05T12:31:40.480Z,1892.00
2018-10-05T12:32:40.491Z,1900.00
2018-10-05T12:33:40.493Z,1880.00
2018-10-05T12:34:40.500Z,1884.00
2018-10-05T12:35:40.506Z,1876.00
2018-10-05T12:36:40.513Z,1872.00
2018-10-05T12:37:40.518Z,1860.00
2018-10-05T12:38:40.521Z,1860.00
2018-10-05T12:39:40.529Z,1848.00
2018-10-05T12:40:40.535Z,1844.00
2018-10-05T12:41:40.540Z,1840.00
2018-10-05T12:42:40.545Z,1836.00
2018-10-05T12:43:40.554Z,1832.00
2018-10-05T12:44:40.558Z,1824.00
2018-10-05T12:45:48.714Z,1820.00
2018-10-05T12:47:34.002Z,1812.00
2018-10-05T12:48:33.996Z,1812.00
2018-10-05T12:50:27.104Z,1788.00
2018-10-05T12:51:27.100Z,1764.00
2018-10-05T12:52:27.093Z,1744.00
2018-10-05T12:53:27.089Z,1768.00
2018-10-05T12:54:27.099Z,1768.00
2018-10-05T12:55:27.113Z,1772.00
2018-10-05T12:56:29.960Z,1784.00
2018-10-05T12:57:27.210Z,1780.00
2018-10-05T12:58:27.135Z,1772.00
2018-10-05T12:59:27.122Z,1768.00
2018-10-05T13:00:27.138Z,1768.00
2018-10-05T13:01:27.134Z,1760.00
2018-10-05T13:02:27.139Z,1756.00
2018-10-05T13:03:27.149Z,1756.00
2018-10-05T13:04:27.148Z,1732.00
2018-10-05T13:05:27.157Z,1716.00
2018-10-05T13:06:27.166Z,1680.00
2018-10-05T13:07:27.180Z,1700.00
2018-10-05T13:08:27.195Z,1696.00
2018-10-05T13:09:28.977Z,1684.00
2018-10-05T13:10:27.200Z,1724.00
2018-10-05T13:11:27.216Z,1716.00
2018-10-05T13:12:27.270Z,1712.00
2018-10-05T13:13:27.216Z,1712.00
2018-10-05T13:14:27.256Z,1716.00
2018-10-05T13:15:27.227Z,1712.00
2018-10-05T13:16:27.218Z,1500.00
2018-10-05T13:17:27.226Z,1696.00
2018-10-05T13:18:29.924Z,1696.00
2018-10-05T13:19:27.267Z,1704.00
2018-10-05T13:20:27.240Z,1692.00
2018-10-05T13:21:27.254Z,1676.00
2018-10-05T13:22:27.254Z,1676.00
2018-10-05T13:23:27.259Z,1672.00
2018-10-05T13:24:27.264Z,1668.00
2018-10-05T13:25:27.270Z,1660.00
2018-10-05T13:26:27.278Z,1648.00
2018-10-05T13:27:27.302Z,1652.00
2018-10-05T13:28:27.321Z,1636.00
2018-10-05T13:29:27.300Z,1588.00
2018-10-05T13:30:27.301Z,1608.00
2018-10-05T13:31:27.305Z,1652.00
2018-10-05T13:32:27.316Z,1636.00
2018-10-05T13:33:27.315Z,1612.00
2018-10-05T13:34:27.343Z,1600.00
2018-10-05T13:35:27.332Z,1500.00
2018-10-05T13:36:27.341Z,1560.00
2018-10-05T13:37:27.433Z,1564.00
2018-10-05T13:38:27.357Z,1552.00
2018-10-05T13:39:27.354Z,1600.00
2018-10-05T13:40:29.939Z,1596.00
2018-10-05T13:41:27.393Z,1584.00
2018-10-05T13:42:27.372Z,1584.00
2018-10-05T13:43:27.442Z,1576.00
2018-10-05T13:44:27.396Z,1540.00
2018-10-05T13:45:27.422Z,1516.00
2018-10-05T13:46:27.405Z,1544.00
2018-10-05T13:47:27.395Z,1536.00
2018-10-05T13:48:27.474Z,1548.00
2018-10-05T13:49:27.409Z,1552.00
2018-10-05T13:50:27.447Z,1548.00
2018-10-05T13:51:27.467Z,1524.00
2018-10-05T13:52:27.428Z,1508.00
2018-10-05T13:53:27.430Z,1504.00
2018-10-05T13:54:27.438Z,1488.00
2018-10-05T13:55:27.439Z,1504.00
2018-10-05T13:56:27.475Z,1516.00
2018-10-05T13:57:27.464Z,1492.00
2018-10-05T13:58:27.455Z,1492.00
2018-10-05T13:59:27.459Z,1476.00
2018-10-05T14:00:27.470Z,1536.00
2018-10-05T14:01:27.479Z,1512.00
2018-10-05T14:02:27.481Z,1520.00
2018-10-05T14:03:27.486Z,1492.00
2018-10-05T14:04:27.491Z,1504.00
2018-10-05T14:05:27.508Z,1436.00
2018-10-05T14:06:27.502Z,1432.00
2018-10-05T14:07:27.521Z,1456.00
2018-10-05T14:08:27.515Z,1444.00
2018-10-05T14:09:27.521Z,1436.00
2018-10-05T14:10:27.573Z,1412.00
2018-10-05T14:11:27.533Z,1416.00
2018-10-05T14:12:27.535Z,1440.00
2018-10-05T14:13:27.583Z,1420.00
2018-10-05T14:14:27.853Z,1424.00
2018-10-05T14:15:29.515Z,1408.00
2018-10-05T14:16:27.765Z,1340.00
2018-10-05T14:17:27.788Z,1328.00
2018-10-05T14:18:27.650Z,1364.00
2018-10-05T14:19:27.846Z,1380.00
2018-10-05T14:20:28.802Z,1372.00
2018-10-05T14:21:35.567Z,1368.00
2018-10-05T14:23:22.669Z,1340.00
2018-10-05T14:24:21.210Z,1252.00
2018-10-05T14:26:15.106Z,1304.00
2018-10-05T14:27:14.936Z,1296.00
2018-10-05T14:29:08.177Z,1264.00
2018-10-05T14:30:07.846Z,1256.00